sensor_id;sensor_type;location;lat;lon;timestamp;P1;durP1;ratioP1;P2;durP2;ratioP2
17696;SDS011;8967;47.984;7.842;2023-01-01T00:02:21;7.88;;;3.55;;
17696;SDS011;8967;47.984;7.842;2023-01-01T00:04:48;7.28;;;3.67;;
17696;SDS011;8967;47.984;7.842;2023-01-01T00:07:15;5.28;;;3.72;;
17696;SDS011;8967;47.984;7.842;2023-01-01T00:09:44;12.38;;;7.43;;
17696;SDS011;8967;47.984;7.842;2023-01-01T00:12:31;8.70;;;6.47;;
17696;SDS011;8967;47.984;7.842;2023-01-01T00:15:00;12.73;;;8.60;;
17696;SDS011;8967;47.984;7.842;2023-01-01T00:17:27;10.75;;;7.32;;
17696;SDS011;8967;47.984;7.842;2023-01-01T00:19:57;16.08;;;8.18;;
17696;SDS011;8967;47.984;7.842;2023-01-01T00:22:24;11.55;;;7.45;;
17696;SDS011;8967;47.984;7.842;2023-01-01T00:24:54;11.52;;;6.15;;
17696;SDS011;8967;47.984;7.842;2023-01-01T00:27:24;7.78;;;5.30;;
17696;SDS011;8967;47.984;7.842;2023-01-01T00:29:51;7.90;;;4.72;;
17696;SDS011;8967;47.984;7.842;2023-01-01T00:32:18;8.30;;;4.53;;
17696;SDS011;8967;47.984;7.842;2023-01-01T00:34:44;11.93;;;6.82;;
17696;SDS011;8967;47.984;7.842;2023-01-01T00:37:11;9.65;;;6.03;;
17696;SDS011;8967;47.984;7.842;2023-01-01T00:39:41;7.80;;;5.00;;
17696;SDS011;8967;47.984;7.842;2023-01-01T00:42:10;7.55;;;4.90;;
17696;SDS011;8967;47.984;7.842;2023-01-01T00:44:37;9.43;;;5.22;;
17696;SDS011;8967;47.984;7.842;2023-01-01T00:47:04;9.10;;;4.82;;
17696;SDS011;8967;47.984;7.842;2023-01-01T00:49:31;5.72;;;4.32;;
17696;SDS011;8967;47.984;7.842;2023-01-01T00:51:58;8.07;;;4.15;;
17696;SDS011;8967;47.984;7.842;2023-01-01T00:54:25;6.65;;;4.82;;
17696;SDS011;8967;47.984;7.842;2023-01-01T00:56:51;5.72;;;3.90;;
17696;SDS011;8967;47.984;7.842;2023-01-01T00:59:21;4.50;;;3.25;;
17696;SDS011;8967;47.984;7.842;2023-01-01T01:01:48;5.45;;;3.72;;
17696;SDS011;8967;47.984;7.842;2023-01-01T01:04:15;6.38;;;4.15;;
17696;SDS011;8967;47.984;7.842;2023-01-01T01:06:42;4.75;;;3.53;;
17696;SDS011;8967;47.984;7.842;2023-01-01T01:09:09;6.65;;;3.75;;
17696;SDS011;8967;47.984;7.842;2023-01-01T01:11:36;4.20;;;3.30;;
17696;SDS011;8967;47.984;7.842;2023-01-01T01:14:02;7.10;;;3.45;;
17696;SDS011;8967;47.984;7.842;2023-01-01T01:16:33;6.05;;;3.97;;
17696;SDS011;8967;47.984;7.842;2023-01-01T01:19:00;10.98;;;6.32;;
17696;SDS011;8967;47.984;7.842;2023-01-01T01:21:30;10.68;;;6.13;;
17696;SDS011;8967;47.984;7.842;2023-01-01T01:23:59;9.52;;;5.20;;
17696;SDS011;8967;47.984;7.842;2023-01-01T01:26:28;8.23;;;5.32;;
17696;SDS011;8967;47.984;7.842;2023-01-01T01:28:56;6.15;;;3.63;;
17696;SDS011;8967;47.984;7.842;2023-01-01T01:31:25;4.78;;;3.08;;
17696;SDS011;8967;47.984;7.842;2023-01-01T01:33:55;4.10;;;2.80;;
17696;SDS011;8967;47.984;7.842;2023-01-01T01:36:23;5.03;;;2.92;;
17696;SDS011;8967;47.984;7.842;2023-01-01T01:38:50;3.47;;;2.80;;
17696;SDS011;8967;47.984;7.842;2023-01-01T01:41:18;2.67;;;2.08;;
17696;SDS011;8967;47.984;7.842;2023-01-01T01:43:50;2.45;;;1.70;;
17696;SDS011;8967;47.984;7.842;2023-01-01T01:46:22;3.85;;;1.90;;
17696;SDS011;8967;47.984;7.842;2023-01-01T01:48:57;2.75;;;1.90;;
17696;SDS011;8967;47.984;7.842;2023-01-01T01:51:29;1.60;;;1.50;;
17696;SDS011;8967;47.984;7.842;2023-01-01T01:53:59;3.05;;;1.80;;
17696;SDS011;8967;47.984;7.842;2023-01-01T01:56:30;2.85;;;1.83;;
17696;SDS011;8967;47.984;7.842;2023-01-01T01:59:02;3.35;;;2.10;;
17696;SDS011;8967;47.984;7.842;2023-01-01T02:01:32;3.00;;;1.80;;
17696;SDS011;8967;47.984;7.842;2023-01-01T02:04:00;2.20;;;1.80;;
17696;SDS011;8967;47.984;7.842;2023-01-01T02:06:29;3.78;;;2.28;;
17696;SDS011;8967;47.984;7.842;2023-01-01T02:08:58;2.67;;;2.20;;
17696;SDS011;8967;47.984;7.842;2023-01-01T02:11:28;3.80;;;2.85;;
17696;SDS011;8967;47.984;7.842;2023-01-01T02:13:55;2.88;;;1.80;;
17696;SDS011;8967;47.984;7.842;2023-01-01T02:16:26;2.88;;;1.63;;
17696;SDS011;8967;47.984;7.842;2023-01-01T02:19:01;3.20;;;1.67;;
17696;SDS011;8967;47.984;7.842;2023-01-01T02:21:38;4.13;;;1.98;;
17696;SDS011;8967;47.984;7.842;2023-01-01T02:24:24;1.85;;;1.48;;
17696;SDS011;8967;47.984;7.842;2023-01-01T02:27:02;2.88;;;1.25;;
17696;SDS011;8967;47.984;7.842;2023-01-01T02:29:39;2.17;;;1.65;;
17696;SDS011;8967;47.984;7.842;2023-01-01T02:32:10;2.08;;;1.50;;
17696;SDS011;8967;47.984;7.842;2023-01-01T02:34:42;3.28;;;1.65;;
17696;SDS011;8967;47.984;7.842;2023-01-01T02:37:14;2.45;;;1.55;;
17696;SDS011;8967;47.984;7.842;2023-01-01T02:39:46;5.20;;;2.05;;
17696;SDS011;8967;47.984;7.842;2023-01-01T02:42:18;2.22;;;1.55;;
17696;SDS011;8967;47.984;7.842;2023-01-01T02:44:50;1.90;;;1.70;;
17696;SDS011;8967;47.984;7.842;2023-01-01T02:47:21;2.40;;;1.63;;
17696;SDS011;8967;47.984;7.842;2023-01-01T02:49:52;3.45;;;1.77;;
17696;SDS011;8967;47.984;7.842;2023-01-01T02:52:28;3.50;;;1.92;;
17696;SDS011;8967;47.984;7.842;2023-01-01T02:55:16;3.10;;;1.65;;
17696;SDS011;8967;47.984;7.842;2023-01-01T02:57:55;2.08;;;1.70;;
17696;SDS011;8967;47.984;7.842;2023-01-01T03:00:50;2.03;;;1.55;;
17696;SDS011;8967;47.984;7.842;2023-01-01T03:03:24;2.05;;;1.50;;
17696;SDS011;8967;47.984;7.842;2023-01-01T03:05:55;3.45;;;1.75;;
17696;SDS011;8967;47.984;7.842;2023-01-01T03:08:45;3.17;;;1.75;;
17696;SDS011;8967;47.984;7.842;2023-01-01T03:11:19;2.60;;;1.70;;
17696;SDS011;8967;47.984;7.842;2023-01-01T03:13:49;2.80;;;1.55;;
17696;SDS011;8967;47.984;7.842;2023-01-01T03:16:26;2.05;;;1.65;;
17696;SDS011;8967;47.984;7.842;2023-01-01T03:18:57;2.80;;;1.67;;
17696;SDS011;8967;47.984;7.842;2023-01-01T03:21:47;3.25;;;1.60;;
17696;SDS011;8967;47.984;7.842;2023-01-01T03:24:17;2.65;;;1.77;;
17696;SDS011;8967;47.984;7.842;2023-01-01T03:26:51;2.25;;;1.80;;
17696;SDS011;8967;47.984;7.842;2023-01-01T03:29:22;2.88;;;1.85;;
17696;SDS011;8967;47.984;7.842;2023-01-01T03:31:54;5.20;;;2.00;;
17696;SDS011;8967;47.984;7.842;2023-01-01T03:34:24;4.15;;;1.80;;
17696;SDS011;8967;47.984;7.842;2023-01-01T03:36:56;4.70;;;2.05;;
17696;SDS011;8967;47.984;7.842;2023-01-01T03:39:26;5.22;;;2.10;;
17696;SDS011;8967;47.984;7.842;2023-01-01T03:41:57;3.78;;;1.98;;
17696;SDS011;8967;47.984;7.842;2023-01-01T03:44:34;3.45;;;1.35;;
17696;SDS011;8967;47.984;7.842;2023-01-01T03:47:08;3.25;;;1.80;;
17696;SDS011;8967;47.984;7.842;2023-01-01T03:49:35;4.45;;;1.63;;
17696;SDS011;8967;47.984;7.842;2023-01-01T03:52:06;2.05;;;1.70;;
17696;SDS011;8967;47.984;7.842;2023-01-01T03:54:51;2.13;;;1.77;;
17696;SDS011;8967;47.984;7.842;2023-01-01T03:57:24;2.63;;;1.60;;
17696;SDS011;8967;47.984;7.842;2023-01-01T03:59:56;1.67;;;1.17;;
17696;SDS011;8967;47.984;7.842;2023-01-01T04:02:39;4.10;;;1.70;;
17696;SDS011;8967;47.984;7.842;2023-01-01T04:05:10;3.28;;;1.77;;
17696;SDS011;8967;47.984;7.842;2023-01-01T04:07:40;2.63;;;1.55;;
17696;SDS011;8967;47.984;7.842;2023-01-01T04:10:08;4.65;;;2.60;;
17696;SDS011;8967;47.984;7.842;2023-01-01T04:12:43;3.15;;;2.80;;
17696;SDS011;8967;47.984;7.842;2023-01-01T04:15:11;2.63;;;1.50;;
17696;SDS011;8967;47.984;7.842;2023-01-01T04:17:40;5.10;;;2.00;;
17696;SDS011;8967;47.984;7.842;2023-01-01T04:20:07;3.45;;;1.77;;
17696;SDS011;8967;47.984;7.842;2023-01-01T04:22:35;3.72;;;1.42;;
17696;SDS011;8967;47.984;7.842;2023-01-01T04:25:04;2.10;;;1.50;;
17696;SDS011;8967;47.984;7.842;2023-01-01T04:27:32;1.98;;;1.40;;
17696;SDS011;8967;47.984;7.842;2023-01-01T04:29:59;4.25;;;1.70;;
17696;SDS011;8967;47.984;7.842;2023-01-01T04:32:27;2.47;;;1.25;;
17696;SDS011;8967;47.984;7.842;2023-01-01T04:34:59;1.52;;;1.25;;
17696;SDS011;8967;47.984;7.842;2023-01-01T04:37:26;2.00;;;1.20;;
17696;SDS011;8967;47.984;7.842;2023-01-01T04:39:55;1.65;;;1.27;;
17696;SDS011;8967;47.984;7.842;2023-01-01T04:42:22;1.60;;;1.27;;
17696;SDS011;8967;47.984;7.842;2023-01-01T04:44:49;2.28;;;1.10;;
17696;SDS011;8967;47.984;7.842;2023-01-01T04:47:16;3.25;;;2.15;;
17696;SDS011;8967;47.984;7.842;2023-01-01T04:49:44;2.08;;;1.42;;
17696;SDS011;8967;47.984;7.842;2023-01-01T04:52:12;2.45;;;1.60;;
17696;SDS011;8967;47.984;7.842;2023-01-01T04:54:39;3.65;;;2.03;;
17696;SDS011;8967;47.984;7.842;2023-01-01T04:57:06;3.65;;;1.88;;
17696;SDS011;8967;47.984;7.842;2023-01-01T04:59:33;2.38;;;1.50;;
17696;SDS011;8967;47.984;7.842;2023-01-01T05:02:02;2.13;;;1.50;;
17696;SDS011;8967;47.984;7.842;2023-01-01T05:04:32;1.73;;;1.30;;
17696;SDS011;8967;47.984;7.842;2023-01-01T05:06:59;1.90;;;1.50;;
17696;SDS011;8967;47.984;7.842;2023-01-01T05:09:27;2.63;;;1.33;;
17696;SDS011;8967;47.984;7.842;2023-01-01T05:11:54;2.72;;;1.38;;
17696;SDS011;8967;47.984;7.842;2023-01-01T05:14:25;2.58;;;1.30;;
17696;SDS011;8967;47.984;7.842;2023-01-01T05:16:52;1.27;;;1.10;;
17696;SDS011;8967;47.984;7.842;2023-01-01T05:19:21;1.27;;;1.00;;
17696;SDS011;8967;47.984;7.842;2023-01-01T05:21:48;2.20;;;1.13;;
17696;SDS011;8967;47.984;7.842;2023-01-01T05:24:15;2.80;;;1.20;;
17696;SDS011;8967;47.984;7.842;2023-01-01T05:26:43;1.90;;;1.40;;
17696;SDS011;8967;47.984;7.842;2023-01-01T05:29:11;1.40;;;1.15;;
17696;SDS011;8967;47.984;7.842;2023-01-01T05:31:38;2.38;;;1.42;;
17696;SDS011;8967;47.984;7.842;2023-01-01T05:34:05;3.47;;;1.60;;
17696;SDS011;8967;47.984;7.842;2023-01-01T05:36:35;1.42;;;1.30;;
17696;SDS011;8967;47.984;7.842;2023-01-01T05:39:03;2.70;;;1.50;;
17696;SDS011;8967;47.984;7.842;2023-01-01T05:41:33;3.47;;;1.30;;
17696;SDS011;8967;47.984;7.842;2023-01-01T05:44:02;2.55;;;1.50;;
17696;SDS011;8967;47.984;7.842;2023-01-01T05:46:32;1.15;;;1.05;;
17696;SDS011;8967;47.984;7.842;2023-01-01T05:48:59;2.47;;;1.30;;
17696;SDS011;8967;47.984;7.842;2023-01-01T05:51:27;2.63;;;1.13;;
17696;SDS011;8967;47.984;7.842;2023-01-01T05:53:55;2.72;;;1.30;;
17696;SDS011;8967;47.984;7.842;2023-01-01T05:56:23;2.25;;;1.20;;
17696;SDS011;8967;47.984;7.842;2023-01-01T05:58:51;1.63;;;1.23;;
17696;SDS011;8967;47.984;7.842;2023-01-01T06:01:19;3.88;;;1.55;;
17696;SDS011;8967;47.984;7.842;2023-01-01T06:03:47;1.23;;;1.13;;
17696;SDS011;8967;47.984;7.842;2023-01-01T06:06:15;2.03;;;1.48;;
17696;SDS011;8967;47.984;7.842;2023-01-01T06:08:47;3.22;;;1.67;;
17696;SDS011;8967;47.984;7.842;2023-01-01T06:11:15;3.80;;;1.52;;
17696;SDS011;8967;47.984;7.842;2023-01-01T06:13:42;1.52;;;1.40;;
17696;SDS011;8967;47.984;7.842;2023-01-01T06:16:10;3.83;;;1.60;;
17696;SDS011;8967;47.984;7.842;2023-01-01T06:18:38;3.28;;;1.77;;
17696;SDS011;8967;47.984;7.842;2023-01-01T06:21:06;3.00;;;1.60;;
17696;SDS011;8967;47.984;7.842;2023-01-01T06:23:34;2.25;;;1.45;;
17696;SDS011;8967;47.984;7.842;2023-01-01T06:26:05;1.48;;;1.25;;
17696;SDS011;8967;47.984;7.842;2023-01-01T06:28:33;2.47;;;1.50;;
17696;SDS011;8967;47.984;7.842;2023-01-01T06:31:00;7.30;;;2.10;;
17696;SDS011;8967;47.984;7.842;2023-01-01T06:33:28;3.20;;;1.73;;
17696;SDS011;8967;47.984;7.842;2023-01-01T06:35:56;4.47;;;2.10;;
17696;SDS011;8967;47.984;7.842;2023-01-01T06:38:23;3.33;;;1.88;;
17696;SDS011;8967;47.984;7.842;2023-01-01T06:40:54;4.28;;;2.25;;
17696;SDS011;8967;47.984;7.842;2023-01-01T06:43:22;4.55;;;2.20;;
17696;SDS011;8967;47.984;7.842;2023-01-01T06:45:57;5.03;;;2.50;;
17696;SDS011;8967;47.984;7.842;2023-01-01T06:48:26;3.85;;;2.13;;
17696;SDS011;8967;47.984;7.842;2023-01-01T06:50:53;4.30;;;2.30;;
17696;SDS011;8967;47.984;7.842;2023-01-01T06:53:23;5.65;;;2.78;;
17696;SDS011;8967;47.984;7.842;2023-01-01T06:55:50;4.90;;;2.38;;
17696;SDS011;8967;47.984;7.842;2023-01-01T06:58:17;4.03;;;2.17;;
17696;SDS011;8967;47.984;7.842;2023-01-01T07:00:44;5.03;;;2.20;;
17696;SDS011;8967;47.984;7.842;2023-01-01T07:03:11;3.38;;;2.15;;
17696;SDS011;8967;47.984;7.842;2023-01-01T07:05:38;5.10;;;2.55;;
17696;SDS011;8967;47.984;7.842;2023-01-01T07:08:05;3.55;;;2.35;;
17696;SDS011;8967;47.984;7.842;2023-01-01T07:10:33;7.28;;;2.80;;
17696;SDS011;8967;47.984;7.842;2023-01-01T07:13:00;6.30;;;2.20;;
17696;SDS011;8967;47.984;7.842;2023-01-01T07:15:27;5.35;;;2.08;;
17696;SDS011;8967;47.984;7.842;2023-01-01T07:17:55;3.30;;;1.85;;
17696;SDS011;8967;47.984;7.842;2023-01-01T07:20:22;2.28;;;1.50;;
17696;SDS011;8967;47.984;7.842;2023-01-01T07:22:49;4.50;;;2.08;;
17696;SDS011;8967;47.984;7.842;2023-01-01T07:25:16;2.03;;;1.33;;
17696;SDS011;8967;47.984;7.842;2023-01-01T07:27:45;2.85;;;1.42;;
17696;SDS011;8967;47.984;7.842;2023-01-01T07:30:12;2.05;;;1.58;;
17696;SDS011;8967;47.984;7.842;2023-01-01T07:32:39;2.85;;;1.55;;
17696;SDS011;8967;47.984;7.842;2023-01-01T07:35:06;3.85;;;1.75;;
17696;SDS011;8967;47.984;7.842;2023-01-01T07:37:33;3.03;;;2.00;;
17696;SDS011;8967;47.984;7.842;2023-01-01T07:40:03;4.60;;;1.83;;
17696;SDS011;8967;47.984;7.842;2023-01-01T07:42:31;4.03;;;1.83;;
17696;SDS011;8967;47.984;7.842;2023-01-01T07:44:59;8.23;;;4.45;;
17696;SDS011;8967;47.984;7.842;2023-01-01T07:47:26;11.50;;;4.40;;
17696;SDS011;8967;47.984;7.842;2023-01-01T07:49:53;10.45;;;4.78;;
17696;SDS011;8967;47.984;7.842;2023-01-01T07:52:20;9.10;;;4.22;;
17696;SDS011;8967;47.984;7.842;2023-01-01T07:54:46;6.65;;;3.72;;
17696;SDS011;8967;47.984;7.842;2023-01-01T07:57:13;8.25;;;4.10;;
17696;SDS011;8967;47.984;7.842;2023-01-01T07:59:40;10.73;;;3.53;;
17696;SDS011;8967;47.984;7.842;2023-01-01T08:02:09;5.15;;;3.42;;
17696;SDS011;8967;47.984;7.842;2023-01-01T08:04:37;6.53;;;3.22;;
17696;SDS011;8967;47.984;7.842;2023-01-01T08:07:07;4.85;;;3.05;;
17696;SDS011;8967;47.984;7.842;2023-01-01T08:09:36;4.47;;;2.70;;
17696;SDS011;8967;47.984;7.842;2023-01-01T08:12:03;5.72;;;2.97;;
17696;SDS011;8967;47.984;7.842;2023-01-01T08:14:30;6.43;;;3.20;;
17696;SDS011;8967;47.984;7.842;2023-01-01T08:16:59;4.05;;;2.53;;
17696;SDS011;8967;47.984;7.842;2023-01-01T08:19:27;3.08;;;2.65;;
17696;SDS011;8967;47.984;7.842;2023-01-01T08:21:54;5.22;;;2.85;;
17696;SDS011;8967;47.984;7.842;2023-01-01T08:24:21;4.78;;;2.58;;
17696;SDS011;8967;47.984;7.842;2023-01-01T08:26:48;4.00;;;2.30;;
17696;SDS011;8967;47.984;7.842;2023-01-01T08:29:16;3.80;;;2.33;;
17696;SDS011;8967;47.984;7.842;2023-01-01T08:31:43;3.30;;;2.10;;
17696;SDS011;8967;47.984;7.842;2023-01-01T08:34:13;6.80;;;2.30;;
17696;SDS011;8967;47.984;7.842;2023-01-01T08:36:41;3.05;;;2.42;;
17696;SDS011;8967;47.984;7.842;2023-01-01T08:39:11;3.20;;;2.15;;
17696;SDS011;8967;47.984;7.842;2023-01-01T08:41:38;6.70;;;2.70;;
17696;SDS011;8967;47.984;7.842;2023-01-01T08:44:07;3.97;;;2.47;;
17696;SDS011;8967;47.984;7.842;2023-01-01T08:46:34;4.50;;;2.35;;
17696;SDS011;8967;47.984;7.842;2023-01-01T08:49:01;3.33;;;2.40;;
17696;SDS011;8967;47.984;7.842;2023-01-01T08:51:28;3.97;;;2.17;;
17696;SDS011;8967;47.984;7.842;2023-01-01T08:53:56;4.90;;;2.10;;
17696;SDS011;8967;47.984;7.842;2023-01-01T08:56:23;2.72;;;2.03;;
17696;SDS011;8967;47.984;7.842;2023-01-01T08:58:52;3.13;;;1.63;;
17696;SDS011;8967;47.984;7.842;2023-01-01T09:01:19;5.93;;;1.90;;
17696;SDS011;8967;47.984;7.842;2023-01-01T09:03:46;3.53;;;1.50;;
17696;SDS011;8967;47.984;7.842;2023-01-01T09:06:13;1.55;;;1.40;;
17696;SDS011;8967;47.984;7.842;2023-01-01T09:08:43;3.15;;;1.88;;
17696;SDS011;8967;47.984;7.842;2023-01-01T09:11:16;3.33;;;1.88;;
17696;SDS011;8967;47.984;7.842;2023-01-01T09:13:47;4.32;;;1.85;;
17696;SDS011;8967;47.984;7.842;2023-01-01T09:16:15;3.38;;;1.83;;
17696;SDS011;8967;47.984;7.842;2023-01-01T09:18:42;4.07;;;1.90;;
17696;SDS011;8967;47.984;7.842;2023-01-01T09:21:09;6.82;;;1.98;;
17696;SDS011;8967;47.984;7.842;2023-01-01T09:23:36;5.63;;;1.98;;
17696;SDS011;8967;47.984;7.842;2023-01-01T09:26:03;8.82;;;2.10;;
17696;SDS011;8967;47.984;7.842;2023-01-01T09:28:32;3.28;;;1.98;;
17696;SDS011;8967;47.984;7.842;2023-01-01T09:30:59;4.10;;;2.05;;
17696;SDS011;8967;47.984;7.842;2023-01-01T09:33:26;5.88;;;2.10;;
17696;SDS011;8967;47.984;7.842;2023-01-01T09:35:53;4.78;;;2.42;;
17696;SDS011;8967;47.984;7.842;2023-01-01T09:38:20;5.85;;;2.00;;
17696;SDS011;8967;47.984;7.842;2023-01-01T09:40:50;3.50;;;2.15;;
17696;SDS011;8967;47.984;7.842;2023-01-01T09:43:29;4.57;;;2.75;;
17696;SDS011;8967;47.984;7.842;2023-01-01T09:46:06;4.38;;;2.47;;
17696;SDS011;8967;47.984;7.842;2023-01-01T09:48:37;4.47;;;2.65;;
17696;SDS011;8967;47.984;7.842;2023-01-01T09:51:10;4.63;;;2.45;;
17696;SDS011;8967;47.984;7.842;2023-01-01T09:53:41;5.60;;;2.95;;
17696;SDS011;8967;47.984;7.842;2023-01-01T09:56:17;10.30;;;2.97;;
17696;SDS011;8967;47.984;7.842;2023-01-01T09:58:49;4.72;;;2.85;;
17696;SDS011;8967;47.984;7.842;2023-01-01T10:01:29;5.15;;;2.60;;
17696;SDS011;8967;47.984;7.842;2023-01-01T10:04:16;3.63;;;2.42;;
17696;SDS011;8967;47.984;7.842;2023-01-01T10:06:55;4.72;;;2.90;;
17696;SDS011;8967;47.984;7.842;2023-01-01T10:09:32;3.53;;;2.40;;
17696;SDS011;8967;47.984;7.842;2023-01-01T10:12:04;4.30;;;2.38;;
17696;SDS011;8967;47.984;7.842;2023-01-01T10:14:38;5.32;;;2.20;;
17696;SDS011;8967;47.984;7.842;2023-01-01T10:17:09;5.30;;;2.00;;
17696;SDS011;8967;47.984;7.842;2023-01-01T10:19:43;7.95;;;3.00;;
17696;SDS011;8967;47.984;7.842;2023-01-01T10:22:16;3.75;;;2.20;;
17696;SDS011;8967;47.984;7.842;2023-01-01T10:24:48;7.30;;;2.33;;
17696;SDS011;8967;47.984;7.842;2023-01-01T10:27:22;5.50;;;2.08;;
17696;SDS011;8967;47.984;7.842;2023-01-01T10:29:57;3.25;;;2.15;;
17696;SDS011;8967;47.984;7.842;2023-01-01T10:32:27;2.55;;;2.00;;
17696;SDS011;8967;47.984;7.842;2023-01-01T10:34:57;2.13;;;1.92;;
17696;SDS011;8967;47.984;7.842;2023-01-01T10:37:29;5.03;;;2.15;;
17696;SDS011;8967;47.984;7.842;2023-01-01T10:40:01;4.03;;;1.95;;
17696;SDS011;8967;47.984;7.842;2023-01-01T10:42:31;5.53;;;2.22;;
17696;SDS011;8967;47.984;7.842;2023-01-01T10:45:00;4.20;;;2.17;;
17696;SDS011;8967;47.984;7.842;2023-01-01T10:47:31;2.50;;;2.17;;
17696;SDS011;8967;47.984;7.842;2023-01-01T10:49:59;3.70;;;2.05;;
17696;SDS011;8967;47.984;7.842;2023-01-01T10:52:33;4.88;;;2.17;;
17696;SDS011;8967;47.984;7.842;2023-01-01T10:55:02;3.78;;;2.40;;
17696;SDS011;8967;47.984;7.842;2023-01-01T10:57:32;4.45;;;1.95;;
17696;SDS011;8967;47.984;7.842;2023-01-01T11:05:48;4.20;;;1.65;;
17696;SDS011;8967;47.984;7.842;2023-01-01T11:08:29;4.13;;;2.10;;
17696;SDS011;8967;47.984;7.842;2023-01-01T11:10:58;2.55;;;1.70;;
17696;SDS011;8967;47.984;7.842;2023-01-01T11:13:27;4.13;;;1.60;;
17696;SDS011;8967;47.984;7.842;2023-01-01T11:15:59;2.00;;;1.38;;
17696;SDS011;8967;47.984;7.842;2023-01-01T11:18:27;2.63;;;1.85;;
17696;SDS011;8967;47.984;7.842;2023-01-01T11:21:00;4.68;;;1.98;;
17696;SDS011;8967;47.984;7.842;2023-01-01T11:23:30;3.03;;;1.90;;
17696;SDS011;8967;47.984;7.842;2023-01-01T11:25:59;4.38;;;2.35;;
17696;SDS011;8967;47.984;7.842;2023-01-01T11:28:28;8.48;;;2.83;;
17696;SDS011;8967;47.984;7.842;2023-01-01T11:33:44;3.67;;;2.20;;
17696;SDS011;8967;47.984;7.842;2023-01-01T11:36:21;3.70;;;1.63;;
17696;SDS011;8967;47.984;7.842;2023-01-01T11:38:50;1.98;;;1.50;;
17696;SDS011;8967;47.984;7.842;2023-01-01T11:41:39;7.13;;;1.77;;
17696;SDS011;8967;47.984;7.842;2023-01-01T11:44:08;3.67;;;1.83;;
17696;SDS011;8967;47.984;7.842;2023-01-01T11:46:39;2.45;;;1.80;;
17696;SDS011;8967;47.984;7.842;2023-01-01T11:49:11;3.28;;;1.67;;
17696;SDS011;8967;47.984;7.842;2023-01-01T11:51:39;8.45;;;2.38;;
17696;SDS011;8967;47.984;7.842;2023-01-01T11:54:09;3.47;;;1.80;;
17696;SDS011;8967;47.984;7.842;2023-01-01T11:56:43;4.15;;;1.95;;
17696;SDS011;8967;47.984;7.842;2023-01-01T11:59:11;6.03;;;2.10;;
17696;SDS011;8967;47.984;7.842;2023-01-01T12:01:46;6.28;;;1.95;;
17696;SDS011;8967;47.984;7.842;2023-01-01T12:04:16;5.28;;;1.88;;
17696;SDS011;8967;47.984;7.842;2023-01-01T12:06:50;3.00;;;2.00;;
17696;SDS011;8967;47.984;7.842;2023-01-01T12:09:21;4.40;;;2.10;;
17696;SDS011;8967;47.984;7.842;2023-01-01T12:11:54;5.32;;;2.00;;
17696;SDS011;8967;47.984;7.842;2023-01-01T12:14:27;5.45;;;2.33;;
17696;SDS011;8967;47.984;7.842;2023-01-01T12:17:02;5.72;;;2.25;;
17696;SDS011;8967;47.984;7.842;2023-01-01T12:19:33;5.15;;;1.95;;
17696;SDS011;8967;47.984;7.842;2023-01-01T12:22:07;10.07;;;2.03;;
17696;SDS011;8967;47.984;7.842;2023-01-01T12:24:41;3.80;;;1.80;;
17696;SDS011;8967;47.984;7.842;2023-01-01T12:27:14;2.70;;;2.03;;
17696;SDS011;8967;47.984;7.842;2023-01-01T12:29:48;2.55;;;1.90;;
17696;SDS011;8967;47.984;7.842;2023-01-01T12:32:26;5.13;;;1.75;;
17696;SDS011;8967;47.984;7.842;2023-01-01T12:35:08;3.83;;;2.03;;
17696;SDS011;8967;47.984;7.842;2023-01-01T12:37:44;2.97;;;1.50;;
17696;SDS011;8967;47.984;7.842;2023-01-01T12:43:09;3.67;;;1.73;;
17696;SDS011;8967;47.984;7.842;2023-01-01T12:48:40;4.30;;;1.92;;
17696;SDS011;8967;47.984;7.842;2023-01-01T12:51:30;2.95;;;2.08;;
17696;SDS011;8967;47.984;7.842;2023-01-01T12:54:09;6.30;;;2.30;;
17696;SDS011;8967;47.984;7.842;2023-01-01T12:56:58;7.15;;;2.30;;
17696;SDS011;8967;47.984;7.842;2023-01-01T12:59:32;3.78;;;2.17;;
17696;SDS011;8967;47.984;7.842;2023-01-01T13:02:09;4.68;;;2.13;;
17696;SDS011;8967;47.984;7.842;2023-01-01T13:04:40;3.47;;;2.22;;
17696;SDS011;8967;47.984;7.842;2023-01-01T13:07:10;3.58;;;2.42;;
17696;SDS011;8967;47.984;7.842;2023-01-01T13:09:42;6.72;;;2.65;;
17696;SDS011;8967;47.984;7.842;2023-01-01T13:12:13;3.58;;;2.10;;
17696;SDS011;8967;47.984;7.842;2023-01-01T13:14:43;5.57;;;2.33;;
17696;SDS011;8967;47.984;7.842;2023-01-01T13:17:16;4.00;;;2.28;;
17696;SDS011;8967;47.984;7.842;2023-01-01T13:19:46;4.53;;;1.95;;
17696;SDS011;8967;47.984;7.842;2023-01-01T13:25:17;3.25;;;1.90;;
17696;SDS011;8967;47.984;7.842;2023-01-01T13:28:02;2.47;;;1.70;;
17696;SDS011;8967;47.984;7.842;2023-01-01T13:30:45;3.38;;;1.88;;
17696;SDS011;8967;47.984;7.842;2023-01-01T13:33:16;4.68;;;1.67;;
17696;SDS011;8967;47.984;7.842;2023-01-01T13:38:50;3.53;;;1.80;;
17696;SDS011;8967;47.984;7.842;2023-01-01T13:41:28;5.07;;;1.88;;
17696;SDS011;8967;47.984;7.842;2023-01-01T13:46:49;5.25;;;1.70;;
17696;SDS011;8967;47.984;7.842;2023-01-01T13:49:33;4.47;;;1.90;;
17696;SDS011;8967;47.984;7.842;2023-01-01T13:52:31;5.55;;;1.98;;
17696;SDS011;8967;47.984;7.842;2023-01-01T13:55:33;6.47;;;2.15;;
17696;SDS011;8967;47.984;7.842;2023-01-01T13:58:15;2.28;;;1.73;;
17696;SDS011;8967;47.984;7.842;2023-01-01T14:04:10;5.35;;;1.83;;
17696;SDS011;8967;47.984;7.842;2023-01-01T14:06:47;3.50;;;2.40;;
17696;SDS011;8967;47.984;7.842;2023-01-01T14:09:18;1.88;;;1.75;;
17696;SDS011;8967;47.984;7.842;2023-01-01T14:11:48;4.10;;;2.45;;
17696;SDS011;8967;47.984;7.842;2023-01-01T14:14:18;6.82;;;2.22;;
17696;SDS011;8967;47.984;7.842;2023-01-01T14:16:51;3.85;;;2.22;;
17696;SDS011;8967;47.984;7.842;2023-01-01T14:19:23;11.73;;;2.10;;
17696;SDS011;8967;47.984;7.842;2023-01-01T14:21:51;6.40;;;2.22;;
17696;SDS011;8967;47.984;7.842;2023-01-01T14:24:19;3.90;;;2.15;;
17696;SDS011;8967;47.984;7.842;2023-01-01T14:26:50;7.40;;;2.20;;
17696;SDS011;8967;47.984;7.842;2023-01-01T14:29:20;3.60;;;2.08;;
17696;SDS011;8967;47.984;7.842;2023-01-01T14:31:51;4.63;;;2.22;;
17696;SDS011;8967;47.984;7.842;2023-01-01T14:34:21;3.00;;;2.25;;
17696;SDS011;8967;47.984;7.842;2023-01-01T14:36:51;4.70;;;2.33;;
17696;SDS011;8967;47.984;7.842;2023-01-01T14:39:22;5.00;;;2.50;;
17696;SDS011;8967;47.984;7.842;2023-01-01T14:41:53;6.82;;;2.78;;
17696;SDS011;8967;47.984;7.842;2023-01-01T14:44:23;7.80;;;2.63;;
17696;SDS011;8967;47.984;7.842;2023-01-01T14:46:55;4.85;;;2.95;;
17696;SDS011;8967;47.984;7.842;2023-01-01T14:49:23;4.57;;;2.03;;
17696;SDS011;8967;47.984;7.842;2023-01-01T14:51:55;5.43;;;2.05;;
17696;SDS011;8967;47.984;7.842;2023-01-01T14:54:28;4.28;;;2.30;;
17696;SDS011;8967;47.984;7.842;2023-01-01T14:56:59;6.93;;;2.45;;
17696;SDS011;8967;47.984;7.842;2023-01-01T14:59:26;5.30;;;2.10;;
17696;SDS011;8967;47.984;7.842;2023-01-01T15:01:59;4.25;;;2.20;;
17696;SDS011;8967;47.984;7.842;2023-01-01T15:04:29;8.65;;;2.38;;
17696;SDS011;8967;47.984;7.842;2023-01-01T15:06:57;6.30;;;2.33;;
17696;SDS011;8967;47.984;7.842;2023-01-01T15:09:25;7.03;;;2.17;;
17696;SDS011;8967;47.984;7.842;2023-01-01T15:11:55;5.13;;;2.05;;
17696;SDS011;8967;47.984;7.842;2023-01-01T15:14:29;7.30;;;2.53;;
17696;SDS011;8967;47.984;7.842;2023-01-01T15:16:59;3.70;;;2.30;;
17696;SDS011;8967;47.984;7.842;2023-01-01T15:19:26;5.72;;;2.35;;
17696;SDS011;8967;47.984;7.842;2023-01-01T15:21:53;6.20;;;2.50;;
17696;SDS011;8967;47.984;7.842;2023-01-01T15:24:20;4.70;;;2.70;;
17696;SDS011;8967;47.984;7.842;2023-01-01T15:26:52;6.65;;;2.53;;
17696;SDS011;8967;47.984;7.842;2023-01-01T15:29:23;4.35;;;2.13;;
17696;SDS011;8967;47.984;7.842;2023-01-01T15:31:55;7.75;;;2.60;;
17696;SDS011;8967;47.984;7.842;2023-01-01T15:34:24;6.75;;;2.65;;
17696;SDS011;8967;47.984;7.842;2023-01-01T15:37:04;6.82;;;2.45;;
17696;SDS011;8967;47.984;7.842;2023-01-01T15:39:43;5.15;;;2.40;;
17696;SDS011;8967;47.984;7.842;2023-01-01T15:47:53;4.63;;;3.17;;
17696;SDS011;8967;47.984;7.842;2023-01-01T15:50:22;10.52;;;2.70;;
17696;SDS011;8967;47.984;7.842;2023-01-01T15:52:51;6.40;;;2.42;;
17696;SDS011;8967;47.984;7.842;2023-01-01T15:55:22;6.13;;;3.10;;